createdAt,value
2019-02-12T00:02:14.879Z,12.90
2019-02-12T00:04:44.968Z,15.93
2019-02-12T00:07:14.993Z,12.60
2019-02-12T00:09:45.082Z,15.53
2019-02-12T00:12:15.942Z,12.77
2019-02-12T00:14:45.987Z,14.03
2019-02-12T00:17:27.994Z,14.03
2019-02-12T00:20:10.861Z,12.28
2019-02-12T00:22:40.841Z,10.73
2019-02-12T00:25:12.654Z,8.13
2019-02-12T00:27:44.073Z,12.98
2019-02-12T00:30:14.171Z,12.47
2019-02-12T00:32:45.207Z,13.00
2019-02-12T00:35:15.416Z,12.20
2019-02-12T00:37:45.334Z,12.80
2019-02-12T00:40:15.371Z,10.70
2019-02-12T00:42:45.328Z,11.83
2019-02-12T00:45:15.384Z,11.65
2019-02-12T00:47:45.528Z,16.55
2019-02-12T00:50:15.581Z,12.20
2019-02-12T00:52:45.693Z,12.95
2019-02-12T00:55:15.655Z,11.63
2019-02-12T00:57:45.610Z,10.90
2019-02-12T01:00:15.654Z,11.07
2019-02-12T01:02:45.640Z,11.07
2019-02-12T01:05:15.764Z,13.20
2019-02-12T01:07:45.848Z,11.77
2019-02-12T01:10:15.916Z,15.25
2019-02-12T01:12:46.028Z,17.53
2019-02-12T01:15:17.132Z,10.80
2019-02-12T01:17:48.848Z,11.10
2019-02-12T01:20:19.030Z,12.20
2019-02-12T01:22:49.118Z,10.23
2019-02-12T01:25:19.216Z,8.07
2019-02-12T01:27:49.615Z,8.30
2019-02-12T01:30:19.572Z,7.87
2019-02-12T01:32:49.583Z,7.93
2019-02-12T01:35:19.609Z,7.27
2019-02-12T01:37:49.632Z,8.47
2019-02-12T01:40:20.748Z,7.77
2019-02-12T01:42:50.649Z,9.10
2019-02-12T01:45:20.728Z,7.80
2019-02-12T01:47:50.749Z,6.13
2019-02-12T01:50:20.804Z,9.23
2019-02-12T01:52:50.990Z,6.60
2019-02-12T01:55:21.045Z,9.77
2019-02-12T01:57:51.249Z,7.40
2019-02-12T02:00:21.342Z,5.23
2019-02-12T02:02:51.564Z,5.33
2019-02-12T02:05:21.677Z,7.70
2019-02-12T02:07:51.868Z,3.90
2019-02-12T02:10:22.265Z,3.90
2019-02-12T02:12:52.496Z,5.83
2019-02-12T02:15:23.014Z,4.77
2019-02-12T02:17:54.927Z,5.37
2019-02-12T02:20:24.949Z,4.97
2019-02-12T02:22:55.148Z,7.67
2019-02-12T02:25:25.072Z,4.27
2019-02-12T02:27:54.995Z,4.13
2019-02-12T02:30:25.014Z,3.97
2019-02-12T02:32:55.166Z,5.47
2019-02-12T02:35:25.057Z,5.03
2019-02-12T02:37:54.946Z,3.80
2019-02-12T02:40:24.860Z,4.27
2019-02-12T02:42:54.757Z,3.87
2019-02-12T02:45:24.785Z,8.60
2019-02-12T02:47:54.728Z,4.73
2019-02-12T02:50:24.742Z,4.73
2019-02-12T02:52:54.809Z,7.70
2019-02-12T02:55:24.855Z,4.73
2019-02-12T02:57:55.864Z,3.80
2019-02-12T03:00:25.858Z,4.10
2019-02-12T03:02:55.955Z,5.07
2019-02-12T03:05:25.947Z,4.90
2019-02-12T03:07:56.092Z,3.97
2019-02-12T03:10:26.113Z,6.53
2019-02-12T03:12:56.082Z,4.95
2019-02-12T03:15:27.996Z,4.47
2019-02-12T03:17:57.930Z,3.97
2019-02-12T03:20:27.968Z,3.63
2019-02-12T03:22:58.055Z,3.77
2019-02-12T03:25:28.206Z,4.47
2019-02-12T03:27:58.541Z,3.77
2019-02-12T03:30:28.752Z,4.17
2019-02-12T03:32:59.051Z,4.03
2019-02-12T03:35:29.122Z,6.00
2019-02-12T03:37:59.121Z,9.53
2019-02-12T03:40:29.272Z,5.80
2019-02-12T03:42:59.291Z,5.70
2019-02-12T03:45:29.406Z,4.70
2019-02-12T03:48:00.389Z,3.50
2019-02-12T03:50:30.386Z,3.20
2019-02-12T03:53:00.531Z,4.60
2019-02-12T03:55:32.347Z,3.87
2019-02-12T03:58:02.480Z,3.70
2019-02-12T04:00:32.440Z,5.47
2019-02-12T04:03:05.599Z,3.57
2019-02-12T04:05:37.025Z,3.50
2019-02-12T04:08:07.435Z,5.07
2019-02-12T04:10:37.872Z,3.50
2019-02-12T04:13:08.000Z,3.40
2019-02-12T04:15:39.034Z,3.93
2019-02-12T04:18:09.171Z,3.60
2019-02-12T04:20:39.181Z,3.90
2019-02-12T04:23:09.320Z,3.90
2019-02-12T04:25:39.220Z,3.60
2019-02-12T04:28:09.185Z,3.60
2019-02-12T04:30:39.317Z,3.80
2019-02-12T04:33:09.352Z,4.77
2019-02-12T04:35:39.346Z,4.97
2019-02-12T04:38:09.371Z,6.30
2019-02-12T04:40:39.522Z,3.63
2019-02-12T04:43:09.632Z,5.63
2019-02-12T04:45:40.710Z,3.73
2019-02-12T04:48:10.672Z,6.50
2019-02-12T04:50:40.657Z,4.43
2019-02-12T04:53:10.632Z,4.57
2019-02-12T04:55:40.693Z,5.30
2019-02-12T04:58:10.669Z,5.90
2019-02-12T05:00:41.792Z,5.60
2019-02-12T05:03:12.002Z,5.43
2019-02-12T05:05:42.158Z,5.63
2019-02-12T05:08:12.256Z,9.77
2019-02-12T05:10:46.629Z,4.93
2019-02-12T05:13:16.617Z,6.77
2019-02-12T05:15:46.889Z,5.97
2019-02-12T05:18:17.044Z,7.13
2019-02-12T05:20:47.094Z,4.37
2019-02-12T05:23:17.158Z,8.73
2019-02-12T05:25:47.222Z,6.30
2019-02-12T05:28:17.230Z,5.20
2019-02-12T05:30:47.211Z,5.47
2019-02-12T05:33:17.198Z,4.40
2019-02-12T05:35:47.230Z,6.57
2019-02-12T05:38:17.320Z,4.90
2019-02-12T05:40:47.439Z,6.63
2019-02-12T05:43:17.617Z,6.13
2019-02-12T05:45:47.744Z,5.30
2019-02-12T05:48:17.741Z,5.60
2019-02-12T05:50:47.843Z,6.10
2019-02-12T05:53:17.924Z,8.70
2019-02-12T05:55:48.047Z,5.43
2019-02-12T05:58:18.229Z,8.00
2019-02-12T06:00:48.364Z,7.30
2019-02-12T06:03:18.439Z,8.73
2019-02-12T06:05:48.329Z,7.00
2019-02-12T06:08:18.369Z,6.30
2019-02-12T06:10:48.445Z,10.10
2019-02-12T06:13:18.363Z,7.27
2019-02-12T06:15:48.449Z,9.50
2019-02-12T06:18:18.673Z,4.70
2019-02-12T06:20:48.770Z,7.50
2019-02-12T06:23:18.750Z,8.27
2019-02-12T06:25:48.865Z,6.73
2019-02-12T06:28:19.209Z,7.70
2019-02-12T06:30:49.647Z,8.90
2019-02-12T06:33:20.951Z,9.27
2019-02-12T06:35:51.076Z,5.90
2019-02-12T06:38:21.304Z,12.80
2019-02-12T06:40:51.363Z,12.73
2019-02-12T06:43:21.363Z,12.53
2019-02-12T06:45:51.451Z,17.87
2019-02-12T06:48:21.699Z,10.20
2019-02-12T06:50:51.811Z,10.60
2019-02-12T06:53:21.880Z,8.47
2019-02-12T06:55:51.929Z,11.93
2019-02-12T06:58:21.911Z,10.37
2019-02-12T07:00:51.940Z,7.57
2019-02-12T07:03:42.376Z,19.03
2019-02-12T07:06:24.003Z,14.87
2019-02-12T07:09:10.437Z,11.43
2019-02-12T07:12:18.841Z,13.10
2019-02-12T07:15:13.000Z,10.30
2019-02-12T07:18:05.846Z,7.07
2019-02-12T07:21:14.287Z,5.27
2019-02-12T07:24:13.569Z,8.73
2019-02-12T07:27:03.633Z,7.23
2019-02-12T07:29:57.705Z,7.77
2019-02-12T07:33:13.212Z,10.53
2019-02-12T07:35:58.403Z,14.93
2019-02-12T07:38:53.816Z,9.37
2019-02-12T07:42:02.309Z,10.57
2019-02-12T07:44:44.415Z,8.03
2019-02-12T07:47:54.324Z,14.87
2019-02-12T07:51:02.705Z,8.97
2019-02-12T07:54:12.148Z,14.57
2019-02-12T07:57:20.517Z,9.00
2019-02-12T08:00:15.892Z,6.33
2019-02-12T08:03:14.153Z,13.48
2019-02-12T08:06:19.327Z,6.90
2019-02-12T08:09:16.329Z,5.93
2019-02-12T08:12:19.713Z,11.97
2019-02-12T08:15:20.124Z,6.93
2019-02-12T08:18:18.145Z,10.10
2019-02-12T08:21:03.478Z,5.50
2019-02-12T08:24:11.852Z,5.73
2019-02-12T08:27:01.063Z,9.67
2019-02-12T08:29:43.791Z,9.07
2019-02-12T08:32:38.403Z,5.40
2019-02-12T08:35:46.749Z,11.73
2019-02-12T08:38:55.176Z,9.37
2019-02-12T08:41:52.809Z,4.80
2019-02-12T08:44:31.871Z,10.10
2019-02-12T08:47:25.509Z,10.70
2019-02-12T08:50:20.051Z,10.00
2019-02-12T08:53:04.901Z,6.47
2019-02-12T08:55:53.568Z,10.90
2019-02-12T08:58:44.692Z,10.25
2019-02-12T09:01:37.703Z,6.20
2019-02-12T09:04:46.162Z,6.05
2019-02-12T09:07:38.250Z,4.10
2019-02-12T09:10:27.082Z,4.62
2019-02-12T09:13:35.673Z,6.53
2019-02-12T09:16:45.980Z,26.13
2019-02-12T09:19:35.956Z,18.40
2019-02-12T09:22:44.404Z,14.87
2019-02-12T09:25:38.089Z,7.67
2019-02-12T09:28:22.763Z,9.37
2019-02-12T09:31:21.866Z,14.27
2019-02-12T09:34:22.883Z,5.27
2019-02-12T09:37:19.948Z,7.10
2019-02-12T09:40:28.947Z,7.10
2019-02-12T09:43:37.396Z,6.87
2019-02-12T09:46:45.732Z,9.33
2019-02-12T09:49:49.295Z,12.57
2019-02-12T09:52:48.520Z,6.77
2019-02-12T09:55:42.437Z,7.53
2019-02-12T09:58:50.771Z,8.33
2019-02-12T10:01:37.845Z,6.87
2019-02-12T10:04:19.014Z,7.53
2019-02-12T10:07:12.335Z,6.97
2019-02-12T10:10:10.387Z,8.87
2019-02-12T10:13:08.402Z,8.20
2019-02-12T10:15:51.837Z,6.47
2019-02-12T10:18:32.932Z,8.57
2019-02-12T10:21:41.303Z,7.33
2019-02-12T10:24:34.163Z,8.60
2019-02-12T10:27:17.043Z,7.10
2019-02-12T10:30:10.108Z,9.18
2019-02-12T10:32:38.680Z,4.30
2019-02-12T10:35:08.879Z,10.20
2019-02-12T10:37:39.043Z,8.33
2019-02-12T10:40:09.137Z,5.13
2019-02-12T10:42:39.387Z,8.67
2019-02-12T10:45:09.548Z,11.40
2019-02-12T10:47:40.080Z,7.13
2019-02-12T10:50:10.363Z,4.10
2019-02-12T10:52:40.455Z,9.20
2019-02-12T10:55:10.582Z,8.13
2019-02-12T10:57:40.676Z,5.97
2019-02-12T11:00:13.169Z,10.87
2019-02-12T11:02:43.423Z,10.33
2019-02-12T11:05:14.670Z,10.77
2019-02-12T11:07:44.961Z,22.73
2019-02-12T11:10:15.161Z,12.17
2019-02-12T11:12:45.261Z,16.50
2019-02-12T11:15:15.271Z,7.13
2019-02-12T11:17:45.475Z,17.47
2019-02-12T11:20:28.963Z,10.10
2019-02-12T11:22:59.039Z,12.00
2019-02-12T11:25:29.217Z,5.73
2019-02-12T11:27:59.174Z,10.30
2019-02-12T11:30:29.321Z,14.93
2019-02-12T11:32:59.422Z,8.90
2019-02-12T11:35:29.511Z,13.00
2019-02-12T11:37:59.592Z,15.23
2019-02-12T11:40:29.668Z,11.97
2019-02-12T11:42:59.794Z,13.97
2019-02-12T11:45:29.898Z,5.57
2019-02-12T11:47:59.968Z,7.15
2019-02-12T11:50:30.016Z,8.83
2019-02-12T11:53:00.179Z,9.88
2019-02-12T11:55:30.253Z,9.00
2019-02-12T11:58:00.223Z,10.63
2019-02-12T12:00:35.985Z,8.87
2019-02-12T12:03:06.129Z,9.73
2019-02-12T12:05:36.189Z,9.57
2019-02-12T12:08:06.392Z,10.85
2019-02-12T12:10:36.498Z,9.13
2019-02-12T12:13:06.593Z,11.63
2019-02-12T12:15:36.703Z,10.07
2019-02-12T12:18:06.906Z,14.03
2019-02-12T12:20:36.993Z,8.77
2019-02-12T12:23:07.214Z,9.87
2019-02-12T12:25:37.194Z,6.10
2019-02-12T12:28:07.286Z,6.20
2019-02-12T12:30:37.342Z,7.17
2019-02-12T12:33:07.677Z,8.50
2019-02-12T12:35:37.811Z,9.27
2019-02-12T12:38:09.076Z,9.53
2019-02-12T12:40:58.208Z,5.62
2019-02-12T12:43:29.834Z,9.13
2019-02-12T12:46:00.109Z,9.78
2019-02-12T12:48:32.961Z,8.13
2019-02-12T12:51:03.104Z,8.27
2019-02-12T12:53:33.283Z,8.93
2019-02-12T12:56:03.314Z,9.20
2019-02-12T12:58:33.581Z,12.35
2019-02-12T13:01:04.003Z,8.33
2019-02-12T13:03:34.128Z,8.67
2019-02-12T13:06:04.436Z,8.08
2019-02-12T13:08:34.608Z,9.23
2019-02-12T13:11:04.787Z,8.63
2019-02-12T13:13:35.012Z,8.45
2019-02-12T13:16:05.169Z,8.40
2019-02-12T13:18:36.285Z,8.03
2019-02-12T13:21:19.674Z,9.60
2019-02-12T13:23:49.750Z,6.80
2019-02-12T13:26:19.823Z,8.28
2019-02-12T13:28:49.913Z,9.83
2019-02-12T13:31:20.150Z,8.17
2019-02-12T13:33:50.133Z,9.07
2019-02-12T13:36:20.202Z,8.63
2019-02-12T13:38:50.483Z,11.60
2019-02-12T13:41:20.641Z,6.77
2019-02-12T13:43:50.856Z,8.13
2019-02-12T13:46:22.840Z,6.27
2019-02-12T13:48:54.023Z,9.53
2019-02-12T13:51:24.061Z,7.45
2019-02-12T13:53:54.093Z,8.43
2019-02-12T13:56:24.096Z,7.28
2019-02-12T13:58:54.302Z,7.97
2019-02-12T14:01:24.310Z,5.77
2019-02-12T14:03:54.437Z,6.90
2019-02-12T14:06:24.731Z,5.90
2019-02-12T14:08:54.755Z,4.93
2019-02-12T14:11:25.036Z,8.25
2019-02-12T14:13:55.074Z,7.40
2019-02-12T14:16:25.135Z,7.85
2019-02-12T14:18:55.253Z,5.87
2019-02-12T14:21:25.305Z,8.10
2019-02-12T14:23:55.445Z,7.10
2019-02-12T14:26:25.438Z,8.73
2019-02-12T14:28:55.745Z,7.13
2019-02-12T14:31:25.748Z,5.57
2019-02-12T14:33:57.192Z,4.67
2019-02-12T14:36:27.211Z,9.07
2019-02-12T14:38:57.405Z,7.07
2019-02-12T14:41:27.404Z,5.27
2019-02-12T14:43:57.383Z,4.53
2019-02-12T14:46:27.428Z,5.45
2019-02-12T14:48:57.504Z,8.43
2019-02-12T14:51:27.544Z,6.50
2019-02-12T14:53:57.488Z,8.17
2019-02-12T14:56:28.163Z,5.83
2019-02-12T14:58:58.254Z,5.03
2019-02-12T15:01:29.767Z,6.33
2019-02-12T15:03:59.884Z,7.50
2019-02-12T15:06:31.144Z,4.00
2019-02-12T15:09:01.324Z,4.00
2019-02-12T15:11:33.051Z,4.00
2019-02-12T15:14:03.193Z,6.40
2019-02-12T15:16:33.214Z,4.07
2019-02-12T15:19:03.653Z,4.77
2019-02-12T15:21:33.965Z,4.83
2019-02-12T15:24:04.313Z,3.83
2019-02-12T15:26:34.342Z,5.13
2019-02-12T15:29:04.454Z,4.58
2019-02-12T15:31:35.294Z,4.90
2019-02-12T15:34:05.381Z,3.97
2019-02-12T15:36:35.505Z,5.07
2019-02-12T15:39:07.148Z,4.37
2019-02-12T15:41:38.491Z,5.10
2019-02-12T15:44:10.173Z,7.33
2019-02-12T15:46:40.195Z,5.97
2019-02-12T15:49:10.670Z,4.23
2019-02-12T15:51:40.828Z,5.83
2019-02-12T15:54:10.892Z,4.67
2019-02-12T15:56:41.119Z,5.37
2019-02-12T15:59:12.324Z,8.93
2019-02-12T16:01:43.327Z,4.60
2019-02-12T16:04:13.452Z,4.40
2019-02-12T16:06:44.673Z,4.80
2019-02-12T16:09:16.168Z,7.70
2019-02-12T16:11:46.653Z,4.07
2019-02-12T16:14:18.448Z,3.93
2019-02-12T16:16:50.006Z,4.00
2019-02-12T16:19:20.086Z,4.63
2019-02-12T16:21:49.989Z,5.50
2019-02-12T16:24:20.266Z,5.92
2019-02-12T16:26:50.769Z,4.33
2019-02-12T16:29:20.856Z,4.70
2019-02-12T16:31:51.157Z,9.18
2019-02-12T16:34:21.505Z,6.30
2019-02-12T16:36:51.725Z,4.78
2019-02-12T16:39:22.022Z,7.17
2019-02-12T16:41:52.276Z,8.60
2019-02-12T16:44:22.593Z,6.63
2019-02-12T16:46:52.967Z,8.30
2019-02-12T16:49:23.183Z,9.18
2019-02-12T16:51:54.408Z,5.43
2019-02-12T16:54:25.040Z,5.65
2019-02-12T16:56:55.402Z,6.27
2019-02-12T16:59:25.555Z,8.07
2019-02-12T17:01:55.766Z,8.50
2019-02-12T17:04:25.889Z,7.55
2019-02-12T17:06:56.191Z,8.70
2019-02-12T17:09:26.487Z,8.93
2019-02-12T17:11:56.661Z,4.50
2019-02-12T17:14:28.003Z,5.77
2019-02-12T17:16:58.426Z,12.97
2019-02-12T17:19:28.620Z,10.00
2019-02-12T17:21:58.820Z,12.10
2019-02-12T17:24:29.785Z,12.83
2019-02-12T17:26:59.970Z,7.90
2019-02-12T17:29:30.345Z,9.00
2019-02-12T17:32:00.886Z,12.70
2019-02-12T17:34:31.166Z,14.30
2019-02-12T17:37:10.930Z,17.23
2019-02-12T17:39:48.439Z,16.67
2019-02-12T17:42:23.427Z,16.87
2019-02-12T17:44:55.848Z,11.55
2019-02-12T17:47:26.270Z,13.93
2019-02-12T17:49:59.188Z,9.67
2019-02-12T17:52:29.765Z,6.93
2019-02-12T17:55:00.001Z,10.10
2019-02-12T17:57:30.875Z,10.97
2019-02-12T18:00:04.055Z,5.93
2019-02-12T18:02:36.074Z,12.80
2019-02-12T18:05:07.186Z,10.83
2019-02-12T18:07:38.306Z,12.03
2019-02-12T18:10:10.808Z,17.30
2019-02-12T18:12:47.082Z,13.17
2019-02-12T18:15:19.499Z,14.67
2019-02-12T18:17:49.987Z,11.63
2019-02-12T18:20:26.351Z,15.93
2019-02-12T18:22:52.915Z,20.63
2019-02-12T18:25:23.269Z,24.93
2019-02-12T18:27:53.454Z,21.20
2019-02-12T18:30:23.766Z,19.17
2019-02-12T18:33:27.181Z,19.62
2019-02-12T18:35:57.228Z,14.03
2019-02-12T18:38:27.402Z,16.63
2019-02-12T18:40:58.685Z,13.50
2019-02-12T18:43:29.029Z,23.67
2019-02-12T18:45:59.486Z,20.10
2019-02-12T18:48:30.750Z,25.13
2019-02-12T18:51:00.966Z,26.57
2019-02-12T18:53:31.061Z,24.27
2019-02-12T18:56:01.263Z,25.50
2019-02-12T18:58:31.615Z,20.00
2019-02-12T19:01:03.178Z,18.13
2019-02-12T19:03:33.390Z,25.37
2019-02-12T19:06:05.045Z,28.10
2019-02-12T19:08:35.300Z,27.33
2019-02-12T19:11:06.650Z,40.20
2019-02-12T19:13:36.786Z,44.13
2019-02-12T19:16:06.913Z,38.50
2019-02-12T19:18:38.169Z,40.07
2019-02-12T19:21:08.303Z,50.77
2019-02-12T19:23:38.499Z,45.43
2019-02-12T19:26:08.677Z,56.13
2019-02-12T19:28:39.106Z,55.97
2019-02-12T19:31:09.170Z,48.80
2019-02-12T19:33:39.170Z,45.43
2019-02-12T19:36:10.649Z,49.13
2019-02-12T19:41:56.724Z,42.30
2019-02-12T19:44:26.888Z,47.03
2019-02-12T19:46:57.010Z,48.40
2019-02-12T19:49:29.165Z,52.10
2019-02-12T19:54:46.803Z,53.93
2019-02-12T19:57:24.091Z,49.97
2019-02-12T19:59:56.463Z,56.90
2019-02-12T20:02:49.785Z,58.60
2019-02-12T20:05:31.905Z,68.53
2019-02-12T20:08:04.597Z,73.53
2019-02-12T20:17:18.128Z,47.77
2019-02-12T20:19:54.114Z,47.87
2019-02-12T20:22:26.892Z,42.40
2019-02-12T20:24:57.595Z,49.13
2019-02-12T20:27:49.475Z,40.77
2019-02-12T20:30:33.504Z,44.97
2019-02-12T20:33:09.967Z,49.37
2019-02-12T20:35:44.877Z,47.03
2019-02-12T20:38:15.651Z,49.80
2019-02-12T20:40:50.046Z,51.27
2019-02-12T20:43:20.525Z,45.30
2019-02-12T20:45:51.038Z,47.07
2019-02-12T20:48:25.670Z,43.03
2019-02-12T20:50:56.106Z,46.80
2019-02-12T20:53:27.433Z,45.97
2019-02-12T20:56:18.346Z,42.60
2019-02-12T20:58:50.339Z,43.03
2019-02-12T21:01:22.742Z,47.00
2019-02-12T21:03:53.118Z,46.40
2019-02-12T21:06:24.341Z,41.57
2019-02-12T21:08:56.614Z,48.30
2019-02-12T21:12:14.921Z,43.43
2019-02-12T21:14:49.326Z,37.80
2019-02-12T21:17:19.530Z,40.27
2019-02-12T21:19:49.651Z,41.53
2019-02-12T21:22:40.879Z,36.70
2019-02-12T21:25:11.247Z,42.83
2019-02-12T21:27:44.523Z,40.20
2019-02-12T21:30:19.839Z,33.07
2019-02-12T21:32:54.443Z,42.67
2019-02-12T21:35:25.574Z,39.17
2019-02-12T21:37:55.774Z,36.20
2019-02-12T21:40:26.304Z,38.07
2019-02-12T21:42:56.356Z,31.00
2019-02-12T21:45:28.157Z,28.87
2019-02-12T21:47:58.947Z,32.10
2019-02-12T21:50:29.533Z,35.40
2019-02-12T21:53:00.445Z,37.67
2019-02-12T21:55:30.623Z,32.67
2019-02-12T21:58:14.014Z,39.63
2019-02-12T22:00:44.060Z,28.30
2019-02-12T22:03:14.113Z,31.37
2019-02-12T22:05:44.330Z,31.00
2019-02-12T22:08:14.461Z,39.17
2019-02-12T22:10:46.426Z,39.10
2019-02-12T22:13:16.434Z,36.20
2019-02-12T22:15:46.477Z,50.07
2019-02-12T22:18:16.613Z,46.03
2019-02-12T22:20:46.730Z,44.00
2019-02-12T22:23:16.713Z,42.33
2019-02-12T22:25:46.771Z,44.70
2019-02-12T22:28:16.823Z,41.87
2019-02-12T22:30:47.024Z,48.87
2019-02-12T22:33:17.113Z,36.77
2019-02-12T22:35:47.144Z,32.93
2019-02-12T22:38:17.303Z,28.47
2019-02-12T22:41:00.942Z,32.93
2019-02-12T22:43:31.290Z,34.40
2019-02-12T22:46:15.349Z,29.17
2019-02-12T22:48:46.370Z,38.97
2019-02-12T22:51:16.673Z,37.63
2019-02-12T22:53:46.733Z,34.67
2019-02-12T22:56:16.817Z,39.40
2019-02-12T22:58:46.891Z,40.07
2019-02-12T23:01:18.114Z,41.60
2019-02-12T23:03:50.146Z,33.87
2019-02-12T23:06:20.159Z,25.40
2019-02-12T23:08:50.175Z,33.13
2019-02-12T23:11:20.265Z,28.50
2019-02-12T23:13:50.287Z,22.40
2019-02-12T23:16:20.419Z,29.83
2019-02-12T23:18:50.545Z,32.43
2019-02-12T23:21:20.493Z,25.50
2019-02-12T23:24:05.241Z,27.60
2019-02-12T23:26:35.370Z,27.43
2019-02-12T23:29:05.552Z,26.73
2019-02-12T23:31:35.695Z,25.70
2019-02-12T23:34:05.812Z,31.00
2019-02-12T23:36:35.885Z,28.43
2019-02-12T23:39:06.584Z,26.53
2019-02-12T23:41:38.261Z,26.87
2019-02-12T23:44:08.627Z,28.03
2019-02-12T23:46:38.833Z,21.20
2019-02-12T23:49:08.929Z,22.67
2019-02-12T23:51:38.991Z,29.97
2019-02-12T23:54:09.207Z,24.90
2019-02-12T23:56:51.149Z,31.13
2019-02-12T23:59:21.229Z,18.40
